createdAt,value
2019-02-25T00:02:38.512Z,4.60
2019-02-25T00:07:29.662Z,5.10
2019-02-25T00:12:21.343Z,4.80
2019-02-25T00:17:11.766Z,4.60
2019-02-25T00:22:02.774Z,4.60
2019-02-25T00:26:53.759Z,4.90
2019-02-25T00:31:45.793Z,4.50
2019-02-25T00:36:37.827Z,5.10
2019-02-25T00:41:29.628Z,4.00
2019-02-25T00:46:21.358Z,5.50
2019-02-25T00:51:13.151Z,4.30
2019-02-25T00:56:04.774Z,3.60
2019-02-25T01:00:56.704Z,4.70
2019-02-25T01:05:48.271Z,4.60
2019-02-25T01:10:40.178Z,3.70
2019-02-25T01:15:31.488Z,5.00
2019-02-25T01:20:21.430Z,3.70
2019-02-25T01:25:12.214Z,3.60
2019-02-25T01:30:03.968Z,5.10
2019-02-25T01:34:55.979Z,5.40
2019-02-25T01:39:47.950Z,5.20
2019-02-25T01:44:39.683Z,4.50
2019-02-25T01:49:31.386Z,4.10
2019-02-25T01:54:23.334Z,4.30
2019-02-25T01:59:14.419Z,4.80
2019-02-25T02:04:06.326Z,6.00
2019-02-25T02:08:57.885Z,4.50
2019-02-25T02:13:48.347Z,5.10
2019-02-25T02:18:40.332Z,4.30
2019-02-25T02:23:32.298Z,5.00
2019-02-25T02:28:24.442Z,5.00
2019-02-25T02:33:16.146Z,5.10
2019-02-25T02:38:07.946Z,5.00
2019-02-25T02:42:59.517Z,4.60
2019-02-25T02:47:51.140Z,5.60
2019-02-25T02:52:43.223Z,5.80
2019-02-25T02:57:35.058Z,5.00
2019-02-25T03:02:26.923Z,4.90
2019-02-25T03:07:18.521Z,4.40
2019-02-25T03:12:10.380Z,4.50
2019-02-25T03:17:02.045Z,4.90
2019-02-25T03:21:53.671Z,4.50
2019-02-25T03:26:45.674Z,5.30
2019-02-25T03:31:37.311Z,4.40
2019-02-25T03:36:27.897Z,5.20
2019-02-25T03:41:18.328Z,4.90
2019-02-25T03:46:09.954Z,4.60
2019-02-25T08:01:12.884Z,5.90
2019-02-25T08:06:05.439Z,6.20
2019-02-25T08:10:57.288Z,3.80
2019-02-25T08:15:49.061Z,5.30
2019-02-25T08:20:40.556Z,4.20
2019-02-25T08:25:32.152Z,3.90
2019-02-25T08:30:23.619Z,3.50
2019-02-25T08:35:16.236Z,3.90
2019-02-25T08:40:07.951Z,4.80
2019-02-25T08:44:59.670Z,3.70
2019-02-25T08:49:52.462Z,3.50
2019-02-25T08:54:44.895Z,4.80
2019-02-25T08:59:36.485Z,5.30
2019-02-25T09:04:28.577Z,3.60
2019-02-25T09:09:20.772Z,4.10
2019-02-25T09:14:12.160Z,3.40
2019-02-25T09:19:03.529Z,3.90
2019-02-25T09:23:55.201Z,3.40
2019-02-25T09:28:47.875Z,2.90
2019-02-25T09:33:40.152Z,3.80
2019-02-25T09:38:32.587Z,4.00
2019-02-25T09:43:23.777Z,2.90
2019-02-25T09:48:16.670Z,3.00
2019-02-25T09:53:08.739Z,3.50
2019-02-25T09:58:03.398Z,3.90
2019-02-25T10:02:54.780Z,3.90
2019-02-25T10:07:45.996Z,3.50
2019-02-25T10:12:37.887Z,3.80
2019-02-25T10:17:29.694Z,3.40
2019-02-25T10:22:21.186Z,4.60
2019-02-25T10:27:13.185Z,3.60
2019-02-25T10:32:07.883Z,3.20
2019-02-25T10:36:59.501Z,3.70
2019-02-25T10:41:57.204Z,5.00
2019-02-25T10:46:51.378Z,4.30
2019-02-25T10:51:45.819Z,3.30
2019-02-25T10:56:37.685Z,4.40
2019-02-25T11:01:29.834Z,3.50
2019-02-25T11:06:21.908Z,3.50
2019-02-25T11:11:22.565Z,2.70
2019-02-25T11:16:20.720Z,2.30
2019-02-25T11:21:12.407Z,2.10
2019-02-25T11:26:03.898Z,2.70
2019-02-25T11:31:11.958Z,3.20
2019-02-25T11:36:19.984Z,3.00
2019-02-25T11:41:11.750Z,3.10
2019-02-25T11:46:01.857Z,3.80
2019-02-25T11:50:53.936Z,2.80
2019-02-25T11:55:45.429Z,3.20
2019-02-25T12:00:39.713Z,3.40
2019-02-25T12:05:31.236Z,3.60
2019-02-25T12:10:22.460Z,2.70
2019-02-25T12:15:14.310Z,2.80
2019-02-25T12:20:06.043Z,3.50
2019-02-25T12:24:58.407Z,2.70
2019-02-25T12:29:50.741Z,2.60
2019-02-25T12:34:43.248Z,2.20
2019-02-25T12:39:35.772Z,2.10
2019-02-25T12:44:27.419Z,2.60
2019-02-25T12:49:19.372Z,2.30
2019-02-25T12:54:12.402Z,1.90
2019-02-25T12:59:05.866Z,2.50
2019-02-25T13:03:57.654Z,3.50
2019-02-25T13:08:49.962Z,3.90
2019-02-25T13:13:42.885Z,4.50
2019-02-25T13:18:35.642Z,3.90
2019-02-25T13:23:27.908Z,3.30
2019-02-25T13:28:23.518Z,6.60
2019-02-25T13:33:22.718Z,2.60
2019-02-25T13:38:14.879Z,5.60
2019-02-25T13:43:07.686Z,3.50
2019-02-25T13:48:00.615Z,3.90
2019-02-25T13:52:52.694Z,3.00
2019-02-25T13:57:47.115Z,2.50
2019-02-25T14:02:39.367Z,2.70
2019-02-25T14:07:31.767Z,1.70
2019-02-25T14:12:25.564Z,1.80
2019-02-25T14:17:18.528Z,2.30
2019-02-25T14:22:11.230Z,2.40
2019-02-25T14:27:03.934Z,2.00
2019-02-25T14:31:56.781Z,3.60
2019-02-25T14:36:52.456Z,1.90
2019-02-25T14:41:57.177Z,2.20
2019-02-25T14:47:01.104Z,2.00
2019-02-25T14:52:04.997Z,2.70
2019-02-25T14:56:57.574Z,2.20
2019-02-25T15:01:51.527Z,3.20
2019-02-25T15:06:42.899Z,2.50
2019-02-25T15:11:34.844Z,2.80
2019-02-25T15:16:26.808Z,3.00
2019-02-25T15:21:19.076Z,2.60
2019-02-25T15:26:11.422Z,3.20
2019-02-25T15:31:11.340Z,3.10
2019-02-25T15:36:06.259Z,3.40
2019-02-25T15:41:02.147Z,3.00
2019-02-25T15:46:00.261Z,3.60
2019-02-25T15:50:55.452Z,3.40
2019-02-25T15:55:50.837Z,3.60
2019-02-25T16:00:45.254Z,3.50
2019-02-25T16:05:39.138Z,3.60
2019-02-25T16:10:30.903Z,4.00
2019-02-25T16:15:23.509Z,3.10
2019-02-25T16:20:19.887Z,3.00
2019-02-25T16:25:12.012Z,2.50
2019-02-25T16:30:06.154Z,4.00
2019-02-25T16:35:02.565Z,3.70
2019-02-25T16:40:03.060Z,3.50
2019-02-25T16:45:03.999Z,3.90
2019-02-25T16:50:02.696Z,3.90
2019-02-25T16:54:54.793Z,4.40
2019-02-25T16:59:47.100Z,4.20
2019-02-25T17:04:39.388Z,3.90
2019-02-25T17:09:34.830Z,5.20
2019-02-25T17:14:32.650Z,5.50
2019-02-25T17:19:25.168Z,5.20
2019-02-25T17:24:17.848Z,5.30
2019-02-25T17:29:14.594Z,5.30
2019-02-25T17:34:06.454Z,5.70
2019-02-25T17:38:58.697Z,6.10
2019-02-25T17:43:52.550Z,6.10
2019-02-25T17:48:48.717Z,5.10
2019-02-25T17:53:40.826Z,5.20
2019-02-25T17:58:38.176Z,5.50
2019-02-25T18:03:37.250Z,5.30
2019-02-25T18:08:39.241Z,5.90
2019-02-25T18:13:34.712Z,4.50
2019-02-25T18:18:28.131Z,5.00
2019-02-25T18:23:22.081Z,5.50
2019-02-25T18:28:17.355Z,5.30
2019-02-25T18:33:12.476Z,5.30
2019-02-25T18:38:09.440Z,5.90
2019-02-25T18:43:02.343Z,4.20
2019-02-25T18:47:57.010Z,5.10
2019-02-25T18:52:52.347Z,6.20
2019-02-25T18:57:52.371Z,5.60
2019-02-25T19:02:43.736Z,6.70
2019-02-25T19:07:35.876Z,5.20
2019-02-25T19:12:27.648Z,6.20
2019-02-25T19:17:22.802Z,6.30
2019-02-25T19:22:20.410Z,6.90
2019-02-25T19:27:13.394Z,5.70
2019-02-25T19:32:05.158Z,7.00
2019-02-25T19:37:02.743Z,6.80
2019-02-25T19:42:02.633Z,6.90
2019-02-25T19:46:56.295Z,8.50
2019-02-25T19:51:50.872Z,6.90
2019-02-25T19:56:48.176Z,6.60
2019-02-25T20:01:46.219Z,52.10
2019-02-25T20:06:40.044Z,25.40
2019-02-25T20:11:37.835Z,45.80
2019-02-25T20:16:32.517Z,15.80
2019-02-25T20:21:28.391Z,24.80
2019-02-25T20:26:24.711Z,26.30
2019-02-25T20:31:17.369Z,21.70
2019-02-25T20:36:09.235Z,18.20
2019-02-25T20:41:03.013Z,18.10
2019-02-25T20:45:58.526Z,15.80
2019-02-25T20:51:04.209Z,15.60
2019-02-25T20:56:00.444Z,12.60
2019-02-25T21:00:52.304Z,11.60
2019-02-25T21:05:44.264Z,9.70
2019-02-25T21:10:36.900Z,9.60
2019-02-25T21:15:28.625Z,10.00
2019-02-25T21:20:26.019Z,9.40
2019-02-25T21:25:26.741Z,9.90
2019-02-25T21:30:26.342Z,10.90
2019-02-25T21:35:17.913Z,11.50
2019-02-25T21:40:09.685Z,12.70
2019-02-25T21:45:02.873Z,12.50
2019-02-25T21:49:59.061Z,12.70
2019-02-25T21:55:02.275Z,13.10
2019-02-25T22:00:05.031Z,12.50
2019-02-25T22:04:55.618Z,10.80
2019-02-25T22:09:47.437Z,10.90
2019-02-25T22:14:41.023Z,9.90
2019-02-25T22:19:43.521Z,11.50
2019-02-25T22:24:40.988Z,11.10
2019-02-25T22:29:32.176Z,10.30
2019-02-25T22:34:32.090Z,9.90
2019-02-25T22:39:27.317Z,10.20
2019-02-25T22:44:24.739Z,9.90
2019-02-25T22:49:26.607Z,12.40
2019-02-25T22:54:22.048Z,10.00
2019-02-25T22:59:13.662Z,10.00
2019-02-25T23:04:05.455Z,9.90
2019-02-25T23:08:57.466Z,9.40
2019-02-25T23:13:52.896Z,10.60
2019-02-25T23:18:45.271Z,11.10
2019-02-25T23:23:40.557Z,9.50
2019-02-25T23:28:31.826Z,9.50
2019-02-25T23:33:25.058Z,10.10
2019-02-25T23:38:16.268Z,11.10
2019-02-25T23:43:11.902Z,10.40
2019-02-25T23:48:11.703Z,10.90
2019-02-25T23:53:02.843Z,8.40
2019-02-25T23:57:54.730Z,10.40
